Time;durP1;ratioP1;P1;durP2;ratioP2;P2;SDS_P1;SDS_P2;PMS_P1;PMS_P2;Temp;Humidity;BMP_temperature;BMP_pressure;BME280_temperature;BME280_humidity;BME280_pressure;Samples;Min_cycle;Max_cycle;Signal;HPM_P1;HPM_P2
2023/01/04 00:01:56;;;;;;;9.93;9.17;;;7.10;52.50;;;;;;20544;6823;277323;-78
2023/01/04 00:04:22;;;;;;;8.87;8.27;;;7.00;52.40;;;;;;20780;6823;117529;-77
2023/01/04 00:06:48;;;;;;;8.33;7.70;;;6.60;53.30;;;;;;20778;6823;117305;-77
2023/01/04 00:09:14;;;;;;;7.50;6.80;;;6.60;53.30;;;;;;20780;6823;119291;-77
2023/01/04 00:11:40;;;;;;;7.83;7.23;;;6.20;54.50;;;;;;20768;6823;117027;-77
2023/01/04 00:14:05;;;;;;;9.30;8.70;;;6.20;54.50;;;;;;20538;6823;307305;-77
2023/01/04 00:16:31;;;;;;;8.77;8.10;;;6.40;55.10;;;;;;20778;6823;118563;-77
2023/01/04 00:18:57;;;;;;;9.30;8.70;;;6.40;54.90;;;;;;20570;6823;312644;-77
2023/01/04 00:21:23;;;;;;;9.53;8.83;;;6.90;54.60;;;;;;20557;6823;337154;-77
2023/01/04 00:23:48;;;;;;;8.03;7.50;;;6.90;54.60;;;;;;20763;6823;117749;-77
2023/01/04 00:26:14;;;;;;;8.40;7.80;;;6.80;54.30;;;;;;20772;6823;118127;-77
2023/01/04 00:28:40;;;;;;;8.47;7.77;;;6.60;54.80;;;;;;20783;6823;117025;-77
2023/01/04 00:31:05;;;;;;;7.60;7.10;;;6.40;55.30;;;;;;20780;6823;116969;-77
2023/01/04 00:33:31;;;;;;;8.03;7.43;;;6.20;55.70;;;;;;20786;6823;118159;-78
2023/01/04 00:35:56;;;;;;;10.02;9.30;;;6.10;56.20;;;;;;20554;6823;282585;-77
2023/01/04 00:38:22;;;;;;;10.37;9.57;;;6.30;56.60;;;;;;20547;6821;292924;-77
2023/01/04 00:40:47;;;;;;;10.25;9.40;;;6.70;55.80;;;;;;20564;6822;341102;-77
2023/01/04 00:43:13;;;;;;;9.67;8.97;;;7.00;54.50;;;;;;20777;6822;117175;-77
2023/01/04 00:45:39;;;;;;;9.57;8.65;;;6.90;54.20;;;;;;20787;6822;120926;-77
2023/01/04 00:48:04;;;;;;;23.33;8.90;;;6.60;54.50;;;;;;20771;6822;116997;-77
2023/01/04 00:50:30;;;;;;;27.02;8.40;;;6.20;55.60;;;;;;20795;6822;118507;-77
2023/01/04 00:52:55;;;;;;;69.13;12.07;;;6.00;55.30;;;;;;20575;6822;336403;-77
2023/01/04 00:55:21;;;;;;;171.77;13.27;;;6.10;55.00;;;;;;20788;6822;117417;-77
2023/01/04 00:57:46;;;;;;;175.50;14.57;;;6.10;54.90;;;;;;20551;6822;281755;-77
2023/01/04 01:00:12;;;;;;;173.33;14.57;;;6.20;55.00;;;;;;20574;6823;307705;-77
2023/01/04 01:02:38;;;;;;;268.67;15.60;;;6.50;54.50;;;;;;20771;6823;123355;-76
2023/01/04 01:05:05;;;;;;;138.27;13.37;;;6.40;54.40;;;;;;20567;6823;307671;-77
2023/01/04 01:07:30;;;;;;;120.17;11.10;;;6.40;54.60;;;;;;20779;6823;117933;-77
2023/01/04 01:09:57;;;;;;;96.40;13.57;;;6.30;54.60;;;;;;20546;6823;307216;-77
2023/01/04 01:12:23;;;;;;;94.60;10.90;;;6.40;54.50;;;;;;20777;6823;118473;-76
2023/01/04 01:14:48;;;;;;;46.20;8.90;;;6.30;54.40;;;;;;20791;6823;119245;-77
2023/01/04 01:17:14;;;;;;;75.87;12.32;;;6.00;54.90;;;;;;20574;6823;312344;-77
2023/01/04 01:19:42;;;;;;;28.47;10.67;;;6.40;54.10;;;;;;20580;6823;306770;-76
2023/01/04 01:22:07;;;;;;;11.77;9.93;;;6.40;54.10;;;;;;20549;6823;307758;-77
2023/01/04 01:24:33;;;;;;;16.80;8.23;;;6.70;53.60;;;;;;20758;6823;117217;-76
2023/01/04 01:26:58;;;;;;;14.17;8.10;;;6.50;53.60;;;;;;20761;6823;121157;-76
2023/01/04 01:29:24;;;;;;;9.90;8.87;;;6.10;54.10;;;;;;20543;6823;342456;-77
2023/01/04 01:31:49;;;;;;;9.63;8.93;;;6.20;54.50;;;;;;20508;6823;337261;-77
2023/01/04 01:34:15;;;;;;;9.37;8.77;;;6.40;53.90;;;;;;20531;6823;308211;-76
2023/01/04 01:36:40;;;;;;;9.15;7.60;;;6.60;52.40;;;;;;20751;6823;119983;-77
2023/01/04 01:39:06;;;;;;;8.97;8.37;;;6.40;52.50;;;;;;20571;6823;311337;-77
2023/01/04 01:41:32;;;;;;;9.13;8.53;;;6.40;53.00;;;;;;20559;6823;303307;-77
2023/01/04 01:44:00;;;;;;;7.93;7.43;;;6.60;53.00;;;;;;20758;6823;118253;-77
2023/01/04 01:46:44;;;;;;;7.70;6.90;;;6.40;53.00;;;;;;20780;6823;121206;-76
2023/01/04 01:49:13;;;;;;;7.60;7.10;;;6.10;53.70;;;;;;20749;6823;117549;-76
2023/01/04 01:51:39;;;;;;;7.33;6.83;;;5.80;54.50;;;;;;20727;6821;118102;-76
2023/01/04 01:54:04;;;;;;;9.50;8.80;;;5.60;55.00;;;;;;20512;6822;308078;-77
2023/01/04 01:56:30;;;;;;;8.40;7.80;;;5.80;54.80;;;;;;20756;6822;117118;-77
2023/01/04 01:58:55;;;;;;;7.70;7.20;;;5.80;54.30;;;;;;20770;6822;118950;-77
2023/01/04 02:01:21;;;;;;;9.02;8.45;;;5.60;54.60;;;;;;20543;6822;340663;-77
2023/01/04 02:03:46;;;;;;;9.67;9.07;;;5.70;55.10;;;;;;20550;6822;307335;-77
2023/01/04 02:06:12;;;;;;;9.73;9.13;;;6.10;54.90;;;;;;20559;6822;297570;-77
2023/01/04 02:08:38;;;;;;;9.17;8.47;;;6.40;54.40;;;;;;20524;6822;312246;-77
2023/01/04 02:11:03;;;;;;;8.00;7.50;;;6.60;54.10;;;;;;20748;6823;117760;-77
2023/01/04 02:14:25;;;;;;;8.23;7.50;;;6.50;54.10;;;;;;20769;6823;117799;-77
2023/01/04 02:16:04;;;;;;;7.03;6.53;;;6.20;54.50;;;;;;20702;6823;119315;-77
2023/01/04 02:18:29;;;;;;;7.57;7.00;;;5.90;55.00;;;;;;20783;6823;117744;-77
2023/01/04 02:21:01;;;;;;;8.07;7.37;;;5.60;55.30;;;;;;20743;6823;118243;-77
2023/01/04 02:23:47;;;;;;;9.75;9.07;;;5.50;55.70;;;;;;20547;6823;311842;-77
2023/01/04 02:26:26;;;;;;;8.47;7.87;;;5.60;55.80;;;;;;20769;6823;118285;-77
2023/01/04 02:28:59;;;;;;;8.80;8.10;;;5.40;55.90;;;;;;20762;6823;118503;-77
2023/01/04 02:31:38;;;;;;;9.95;9.25;;;5.40;55.90;;;;;;20497;6823;313800;-77
2023/01/04 02:34:14;;;;;;;9.17;8.40;;;5.60;55.80;;;;;;20759;6823;123474;-77
2023/01/04 02:36:39;;;;;;;9.52;8.93;;;5.60;55.50;;;;;;20568;6823;307215;-77
2023/01/04 02:39:13;;;;;;;9.03;8.43;;;6.10;55.60;;;;;;20528;6823;312032;-77
2023/01/04 02:41:44;;;;;;;9.30;8.70;;;6.10;55.60;;;;;;20542;6823;281687;-80
2023/01/04 02:47:05;;;;;;;9.13;8.45;;;6.70;54.30;;;;;;20560;6823;306518;-77
2023/01/04 02:52:17;;;;;;;8.98;8.38;;;6.60;53.60;;;;;;20560;6823;336767;-77
2023/01/04 02:54:43;;;;;;;8.70;8.00;;;6.60;53.70;;;;;;20769;6823;117220;-77
2023/01/04 02:57:42;;;;;;;8.00;7.50;;;6.10;54.90;;;;;;20767;6823;118623;-77
2023/01/04 03:00:15;;;;;;;7.00;6.50;;;6.10;54.60;;;;;;20765;6823;117002;-78
2023/01/04 03:08:38;;;;;;;8.27;7.72;;;5.70;54.10;;;;;;20569;6822;290176;-77
2023/01/04 03:12:30;;;;;;;8.57;8.07;;;6.00;52.90;;;;;;20525;6822;307712;-77
2023/01/04 03:13:39;;;;;;;8.77;8.10;;;6.20;52.70;;;;;;20513;6822;340731;-77
2023/01/04 03:16:18;;;;;;;17.63;8.43;;;6.40;52.60;;;;;;20532;6822;333612;-77
2023/01/04 03:18:44;;;;;;;16.23;8.70;;;6.50;52.20;;;;;;20568;6822;307469;-78
2023/01/04 03:21:10;;;;;;;7.90;7.10;;;6.60;52.00;;;;;;20777;6822;117201;-78
2023/01/04 03:35:26;;;;;;;7.33;6.73;;;5.50;53.60;;;;;;20782;6823;117099;-77
2023/01/04 03:49:29;;;;;;;6.27;5.77;;;5.10;56.80;;;;;;20778;6823;117074;-77
2023/01/04 03:51:54;;;;;;;5.80;5.30;;;5.00;57.30;;;;;;20738;6823;118379;-77
2023/01/04 03:54:20;;;;;;;5.32;5.00;;;4.90;58.10;;;;;;20766;6823;117069;-76
2023/01/04 03:56:46;;;;;;;6.17;5.63;;;4.90;58.10;;;;;;20765;6823;117495;-77
2023/01/04 03:59:12;;;;;;;5.90;5.57;;;5.20;58.60;;;;;;20563;6823;300375;-77
2023/01/04 04:01:38;;;;;;;6.57;6.18;;;5.20;58.60;;;;;;20547;6823;307110;-77
2023/01/04 04:09:36;;;;;;;7.90;7.30;;;6.40;55.70;;;;;;20566;6823;281847;-77
2023/01/04 04:12:02;;;;;;;6.77;6.33;;;6.60;55.80;;;;;;20739;6823;118398;-77
2023/01/04 04:14:28;;;;;;;7.20;6.70;;;6.50;55.10;;;;;;20579;6821;278743;-77
2023/01/04 04:16:53;;;;;;;5.60;5.30;;;6.50;55.50;;;;;;20792;6822;117661;-77
2023/01/04 04:19:19;;;;;;;6.00;5.60;;;6.40;55.60;;;;;;20780;6822;116896;-75
2023/01/04 04:21:44;;;;;;;6.83;6.23;;;6.20;56.30;;;;;;20755;6822;146887;-78
2023/01/04 04:24:11;;;;;;;6.67;6.17;;;6.00;56.80;;;;;;20771;6822;117831;-77
2023/01/04 04:26:36;;;;;;;6.22;5.82;;;5.80;57.10;;;;;;20654;6822;117414;-77
2023/01/04 04:29:02;;;;;;;6.20;5.80;;;5.70;57.50;;;;;;20783;6822;116969;-77
2023/01/04 04:31:28;;;;;;;6.53;6.03;;;5.70;57.80;;;;;;20761;6822;118217;-77
2023/01/04 04:33:53;;;;;;;5.80;5.40;;;5.60;57.90;;;;;;20760;6823;117685;-77
2023/01/04 04:36:19;;;;;;;6.43;5.97;;;5.60;58.00;;;;;;20781;6823;118634;-81
2023/01/04 04:38:44;;;;;;;6.90;6.27;;;5.50;58.10;;;;;;20779;6823;117618;-77
2023/01/04 04:43:55;;;;;;;6.53;6.03;;;5.50;58.30;;;;;;20771;6823;118664;-77
2023/01/04 04:46:22;;;;;;;8.60;8.07;;;5.50;58.30;;;;;;20572;6823;277367;-77
2023/01/04 04:48:48;;;;;;;7.27;6.73;;;5.80;57.10;;;;;;20781;6823;122791;-76
2023/01/04 04:51:14;;;;;;;7.47;6.97;;;5.80;57.10;;;;;;20712;6823;116987;-78
2023/01/04 04:53:39;;;;;;;7.17;6.67;;;5.80;57.30;;;;;;20774;6823;117398;-77
2023/01/04 04:56:06;;;;;;;6.47;5.97;;;5.70;57.50;;;;;;20761;6823;117542;-77
2023/01/04 04:58:31;;;;;;;7.83;7.33;;;5.60;57.70;;;;;;20564;6823;277858;-76
2023/01/04 05:00:56;;;;;;;7.93;7.43;;;5.80;57.40;;;;;;20553;6823;279071;-77
2023/01/04 05:03:22;;;;;;;8.57;8.07;;;6.30;56.60;;;;;;20558;6823;337125;-78
2023/01/04 05:05:47;;;;;;;8.40;7.90;;;6.60;55.40;;;;;;20535;6823;342520;-77
2023/01/04 05:08:13;;;;;;;7.50;7.00;;;6.90;54.80;;;;;;20771;6823;123692;-77
2023/01/04 05:10:39;;;;;;;7.80;7.30;;;6.80;54.70;;;;;;20561;6823;277726;-77
2023/01/04 05:13:06;;;;;;;6.50;6.10;;;6.80;54.70;;;;;;20771;6823;117170;-77
2023/01/04 05:15:33;;;;;;;7.87;7.37;;;6.70;54.80;;;;;;20549;6823;307201;-78
2023/01/04 05:17:58;;;;;;;6.80;6.30;;;6.70;54.50;;;;;;20749;6823;117112;-77
2023/01/04 05:20:24;;;;;;;6.13;5.73;;;6.60;54.60;;;;;;20774;6823;117152;-78
2023/01/04 05:22:50;;;;;;;6.43;5.93;;;6.40;55.00;;;;;;20762;6823;117423;-77
2023/01/04 05:25:17;;;;;;;5.37;5.07;;;6.20;55.60;;;;;;20778;6821;118740;-79
2023/01/04 05:27:42;;;;;;;6.80;6.40;;;6.10;56.00;;;;;;20567;6822;337205;-78
2023/01/04 05:32:40;;;;;;;6.70;6.30;;;6.60;55.60;;;;;;19915;6822;307295;-78
2023/01/04 05:35:06;;;;;;;6.20;5.80;;;7.00;54.90;;;;;;20793;6822;120642;-78
2023/01/04 05:37:32;;;;;;;6.57;6.17;;;6.90;54.80;;;;;;20560;6822;282462;-77
2023/01/04 05:39:58;;;;;;;7.07;6.67;;;7.20;54.80;;;;;;20556;6822;280473;-78
2023/01/04 05:42:24;;;;;;;6.67;6.27;;;7.20;54.80;;;;;;20554;6822;308509;-78
2023/01/04 05:44:49;;;;;;;6.40;6.00;;;7.40;54.10;;;;;;20569;6823;278572;-77
2023/01/04 05:47:15;;;;;;;6.43;5.93;;;7.60;53.70;;;;;;20557;6823;297585;-77
2023/01/04 05:49:40;;;;;;;6.12;5.75;;;7.70;53.30;;;;;;20567;6823;307258;-78
2023/01/04 05:52:06;;;;;;;5.87;5.47;;;7.80;52.90;;;;;;20760;6823;118237;-77
2023/01/04 05:54:31;;;;;;;6.23;5.83;;;7.50;53.10;;;;;;20581;6823;307725;-79
2023/01/04 05:56:57;;;;;;;6.53;6.13;;;7.50;53.40;;;;;;20583;6823;277397;-78
2023/01/04 05:59:22;;;;;;;6.83;6.43;;;7.60;53.20;;;;;;20576;6823;307782;-77
2023/01/04 06:01:48;;;;;;;5.47;5.18;;;7.70;53.10;;;;;;20721;6823;118865;-78
2023/01/04 06:04:14;;;;;;;5.37;5.07;;;7.50;53.20;;;;;;20765;6823;117375;-77
2023/01/04 06:06:39;;;;;;;5.57;5.18;;;7.10;53.90;;;;;;20773;6823;118744;-75
2023/01/04 06:09:06;;;;;;;6.47;6.07;;;6.90;54.60;;;;;;20536;6823;278733;-76
2023/01/04 06:11:33;;;;;;;6.55;6.15;;;6.90;55.00;;;;;;20561;6823;336781;-78
2023/01/04 06:13:59;;;;;;;5.47;5.17;;;7.20;54.70;;;;;;20734;6823;118115;-78
2023/01/04 06:16:24;;;;;;;6.55;6.15;;;7.20;54.50;;;;;;20571;6823;278118;-78
2023/01/04 06:18:50;;;;;;;6.47;6.10;;;7.20;54.70;;;;;;20499;6823;307990;-81
2023/01/04 06:21:16;;;;;;;5.43;5.13;;;7.40;54.20;;;;;;20753;6823;117933;-78
2023/01/04 06:23:42;;;;;;;6.53;6.13;;;7.40;54.30;;;;;;20580;6823;284705;-80
2023/01/04 06:26:08;;;;;;;6.37;5.97;;;7.30;54.20;;;;;;20768;6823;119044;-78
2023/01/04 06:28:33;;;;;;;5.30;5.00;;;7.30;54.20;;;;;;20776;6823;117528;-79
2023/01/04 06:31:02;;;;;;;6.27;5.60;;;7.00;54.60;;;;;;20773;6823;118848;-79
2023/01/04 06:33:28;;;;;;;6.70;6.30;;;6.90;55.30;;;;;;20557;6823;278339;-78
2023/01/04 06:35:54;;;;;;;7.60;7.10;;;6.90;55.30;;;;;;20552;6823;307298;-78
2023/01/04 06:38:20;;;;;;;7.30;6.80;;;7.20;54.40;;;;;;20560;6821;307618;-78
2023/01/04 06:40:45;;;;;;;5.93;5.53;;;7.40;53.70;;;;;;20777;6822;122731;-78
2023/01/04 06:43:11;;;;;;;6.83;6.43;;;7.30;54.20;;;;;;20564;6822;305721;-79
2023/01/04 06:45:37;;;;;;;5.90;5.60;;;7.30;54.20;;;;;;20772;6822;117184;-78
2023/01/04 06:48:03;;;;;;;5.55;5.15;;;7.30;54.30;;;;;;20758;6822;118205;-78
2023/01/04 06:50:28;;;;;;;6.82;6.40;;;7.00;54.70;;;;;;20567;6822;307162;-79
2023/01/04 06:52:54;;;;;;;6.93;6.53;;;7.00;54.90;;;;;;20555;6822;336720;-79
2023/01/04 06:55:19;;;;;;;6.07;5.70;;;7.30;54.30;;;;;;20775;6822;116841;-79
2023/01/04 06:57:45;;;;;;;6.28;5.87;;;7.30;54.30;;;;;;20775;6823;117660;-77
2023/01/04 07:00:11;;;;;;;6.10;5.60;;;7.00;54.60;;;;;;20786;6823;119459;-76
2023/01/04 07:02:37;;;;;;;7.17;6.77;;;6.80;55.10;;;;;;20557;6823;307235;-77
2023/01/04 07:05:02;;;;;;;6.67;6.20;;;6.90;55.20;;;;;;20786;6823;119441;-81
2023/01/04 07:07:28;;;;;;;7.43;6.93;;;6.90;55.10;;;;;;20582;6823;307254;-78
2023/01/04 07:09:53;;;;;;;7.82;7.32;;;7.10;55.10;;;;;;20567;6823;314811;-78
2023/01/04 07:12:19;;;;;;;7.10;6.70;;;7.30;54.30;;;;;;20559;6823;311103;-78
2023/01/04 07:14:44;;;;;;;7.10;6.70;;;7.60;54.00;;;;;;20561;6823;340918;-80
2023/01/04 07:17:10;;;;;;;6.30;5.90;;;7.80;53.60;;;;;;20789;6823;117032;-79
2023/01/04 07:19:36;;;;;;;5.87;5.47;;;7.60;53.60;;;;;;20763;6823;117957;-82
2023/01/04 07:22:01;;;;;;;6.53;6.13;;;7.30;54.30;;;;;;20506;6823;457983;-81
2023/01/04 07:24:27;;;;;;;6.12;5.72;;;7.30;54.50;;;;;;20783;6823;118402;-85
2023/01/04 07:26:52;;;;;;;6.03;5.63;;;7.20;54.50;;;;;;20761;6823;116083;-82
2023/01/04 07:29:18;;;;;;;5.87;5.47;;;7.00;55.00;;;;;;20789;6823;117498;-80
2023/01/04 07:31:43;;;;;;;6.10;5.60;;;6.80;55.30;;;;;;20765;6823;117552;-83
2023/01/04 07:34:10;;;;;;;4.90;4.50;;;6.50;56.00;;;;;;20753;6823;117091;-81
2023/01/04 07:36:35;;;;;;;4.80;4.50;;;6.50;56.00;;;;;;20777;6823;117112;-88
2023/01/04 07:39:02;;;;;;;4.83;4.53;;;6.30;56.70;;;;;;20777;6823;117434;-84
2023/01/04 07:41:27;;;;;;;5.37;4.97;;;6.30;56.70;;;;;;20557;6823;307166;-79
2023/01/04 07:43:53;;;;;;;4.70;4.30;;;6.60;57.20;;;;;;20753;6823;120713;-79
2023/01/04 07:46:20;;;;;;;4.50;4.10;;;6.70;56.80;;;;;;20784;6823;117077;-78
2023/01/04 07:48:44;;;;;;;4.73;4.43;;;6.70;56.90;;;;;;20766;6821;118068;-85
2023/01/04 07:51:09;;;;;;;10.47;9.47;;;6.60;57.10;;;;;;20778;6822;123695;-78
2023/01/04 07:53:36;;;;;;;18.58;16.67;;;6.80;57.60;;;;;;20569;6822;307059;-78
2023/01/04 07:56:02;;;;;;;32.07;22.17;;;6.80;57.60;;;;;;20760;6822;118229;-79
2023/01/04 07:58:31;;;;;;;12.27;11.37;;;6.90;57.10;;;;;;20552;6822;309248;-80
2023/01/04 08:01:10;;;;;;;6.60;6.20;;;7.10;57.20;;;;;;20768;6822;118834;-83
2023/01/04 08:03:36;;;;;;;11.13;10.33;;;7.20;56.90;;;;;;20563;6822;293408;-80
2023/01/04 08:06:03;;;;;;;13.87;12.63;;;7.70;56.30;;;;;;20543;6822;289594;-78
2023/01/04 08:08:28;;;;;;;9.83;9.03;;;7.60;55.90;;;;;;20742;6823;117583;-78
2023/01/04 08:10:54;;;;;;;10.93;10.03;;;7.60;55.90;;;;;;20760;6823;117025;-79
2023/01/04 08:13:22;;;;;;;8.07;7.57;;;7.50;56.60;;;;;;20568;6823;277367;-78
2023/01/04 08:15:54;;;;;;;10.37;9.53;;;7.50;56.60;;;;;;20756;6823;120250;-78
2023/01/04 08:18:19;;;;;;;7.30;6.80;;;7.40;56.30;;;;;;20749;6823;118733;-79
2023/01/04 08:20:45;;;;;;;7.83;7.27;;;7.30;56.60;;;;;;20770;6823;117415;-78
2023/01/04 08:23:10;;;;;;;8.90;8.20;;;7.10;56.90;;;;;;20551;6823;278413;-79
2023/01/04 08:25:37;;;;;;;6.50;6.10;;;7.30;57.30;;;;;;20771;6823;120996;-79
2023/01/04 08:28:02;;;;;;;9.73;8.93;;;7.20;57.20;;;;;;20747;6823;120665;-78
2023/01/04 08:30:28;;;;;;;10.43;9.53;;;7.10;57.40;;;;;;20564;6823;278210;-81
2023/01/04 08:32:54;;;;;;;9.98;9.25;;;7.30;58.00;;;;;;20542;6823;283291;-79
2023/01/04 08:35:19;;;;;;;5.97;5.57;;;7.70;57.80;;;;;;20562;6823;344244;-77
2023/01/04 08:37:45;;;;;;;6.80;6.37;;;8.00;58.00;;;;;;20514;6823;280461;-79
2023/01/04 08:40:11;;;;;;;4.70;3.72;;;8.20;56.90;;;;;;20717;6823;117596;-82
2023/01/04 08:42:37;;;;;;;4.93;4.50;;;8.10;56.70;;;;;;20771;6823;117243;-79
2023/01/04 08:45:05;;;;;;;4.10;3.78;;;7.90;57.80;;;;;;20564;6823;307693;-78
2023/01/04 08:47:31;;;;;;;2.80;2.70;;;7.90;57.70;;;;;;20774;6823;116851;-79
2023/01/04 08:49:56;;;;;;;3.20;3.00;;;7.90;58.10;;;;;;20557;6823;278195;-77
2023/01/04 08:52:22;;;;;;;3.50;2.67;;;8.00;57.40;;;;;;20766;6823;117466;-76
2023/01/04 08:54:48;;;;;;;2.53;2.10;;;8.00;57.40;;;;;;20778;6823;118113;-77
2023/01/04 08:57:17;;;;;;;2.37;2.03;;;7.90;57.70;;;;;;20768;6823;117373;-76
2023/01/04 08:59:43;;;;;;;3.17;2.30;;;7.70;58.00;;;;;;20563;6821;305812;-79
2023/01/04 09:02:19;;;;;;;2.33;2.00;;;7.90;58.30;;;;;;20765;6822;117643;-78
2023/01/04 09:04:48;;;;;;;1.90;1.80;;;8.20;57.70;;;;;;20496;6822;278533;-81
2023/01/04 09:07:13;;;;;;;1.80;1.70;;;8.20;57.70;;;;;;20574;6822;307314;-79
2023/01/04 09:09:39;;;;;;;1.80;1.70;;;8.60;56.40;;;;;;20789;6822;117464;-77
2023/01/04 09:12:08;;;;;;;3.37;1.70;;;8.60;56.60;;;;;;20764;6822;118580;-78
2023/01/04 09:14:33;;;;;;;1.80;1.70;;;8.40;56.80;;;;;;20790;6822;117955;-80
2023/01/04 09:17:00;;;;;;;1.30;1.30;;;8.30;57.20;;;;;;20748;6822;117166;-86
2023/01/04 09:19:26;;;;;;;5.70;1.20;;;8.20;57.50;;;;;;20675;6822;116924;-83
2023/01/04 09:21:51;;;;;;;2.30;1.40;;;8.10;57.60;;;;;;20532;6823;312020;-78
2023/01/04 09:24:17;;;;;;;1.62;1.52;;;8.30;56.50;;;;;;20560;6823;306373;-79
2023/01/04 09:26:42;;;;;;;1.80;1.40;;;8.80;55.80;;;;;;20539;6823;341051;-82
2023/01/04 09:29:08;;;;;;;1.40;1.30;;;9.10;54.60;;;;;;20544;6823;307348;-79
2023/01/04 09:31:34;;;;;;;1.67;1.42;;;9.40;53.60;;;;;;20764;6823;119300;-78
2023/01/04 09:34:00;;;;;;;1.17;1.07;;;9.40;53.60;;;;;;20536;6823;306630;-77
2023/01/04 09:36:27;;;;;;;1.20;1.00;;;9.70;52.40;;;;;;20544;6823;306242;-77
2023/01/04 09:38:52;;;;;;;0.97;0.97;;;9.70;52.70;;;;;;20789;6823;72194;-78
2023/01/04 09:41:24;;;;;;;1.42;1.33;;;9.60;52.70;;;;;;20624;6823;118537;-78
2023/01/04 09:43:49;;;;;;;3.43;1.63;;;9.30;53.00;;;;;;20766;6823;118678;-78
2023/01/04 09:46:21;;;;;;;1.70;1.42;;;9.10;53.40;;;;;;20761;6823;117246;-77
2023/01/04 09:48:46;;;;;;;2.03;1.80;;;8.90;53.50;;;;;;20795;6823;116137;-80
2023/01/04 09:51:18;;;;;;;2.15;2.05;;;8.80;53.80;;;;;;20775;6823;118668;-82
2023/01/04 09:53:54;;;;;;;2.87;1.93;;;8.70;54.00;;;;;;20757;6823;117676;-86
2023/01/04 09:56:23;;;;;;;2.10;1.77;;;8.70;54.00;;;;;;20769;6823;117138;-84
2023/01/04 09:58:48;;;;;;;9.50;3.53;;;8.70;54.10;;;;;;20768;6823;117035;-79
2023/01/04 10:01:14;;;;;;;3.35;2.90;;;8.60;53.90;;;;;;20580;6823;306750;-80
2023/01/04 10:03:41;;;;;;;3.73;2.97;;;8.90;53.20;;;;;;20764;6823;118222;-81
2023/01/04 10:06:08;;;;;;;3.85;3.55;;;9.10;53.00;;;;;;20559;6823;277529;-81
2023/01/04 10:08:34;;;;;;;3.67;3.37;;;9.30;52.10;;;;;;20552;6823;322749;-80
2023/01/04 10:11:15;;;;;;;2.83;2.63;;;9.70;51.40;;;;;;20792;6821;117716;-80
2023/01/04 10:14:07;;;;;;;2.60;2.40;;;9.80;51.40;;;;;;20705;6822;117159;-77
2023/01/04 10:17:09;;;;;;;1.90;1.70;;;9.60;51.70;;;;;;20780;6822;116849;-78
2023/01/04 10:20:08;;;;;;;2.17;1.70;;;9.30;52.40;;;;;;19722;7164;119057;-78
2023/01/04 10:22:47;;;;;;;2.10;2.00;;;9.30;52.40;;;;;;20307;6822;298177;-78
2023/01/04 10:25:16;;;;;;;2.25;2.05;;;9.60;51.80;;;;;;20559;6822;335828;-79
2023/01/04 10:28:02;;;;;;;2.00;1.90;;;10.00;49.90;;;;;;20736;6822;116809;-77
2023/01/04 10:30:30;;;;;;;1.30;1.25;;;10.10;49.90;;;;;;20551;6822;307649;-77
2023/01/04 10:33:09;;;;;;;1.40;1.30;;;10.20;49.10;;;;;;20543;6823;281471;-79
2023/01/04 10:35:35;;;;;;;1.43;1.27;;;10.50;48.60;;;;;;19944;6823;120953;-79
2023/01/04 10:38:03;;;;;;;1.17;1.17;;;10.50;48.80;;;;;;20759;6823;117737;-82
2023/01/04 10:40:27;;;;;;;1.73;1.30;;;10.20;49.30;;;;;;20569;6823;277685;-84
2023/01/04 10:43:16;;;;;;;2.50;1.12;;;10.30;49.60;;;;;;20782;6823;117186;-80
2023/01/04 10:45:45;;;;;;;1.48;0.88;;;10.30;49.70;;;;;;20560;6823;312166;-79
2023/01/04 10:48:31;;;;;;;1.10;1.00;;;10.50;49.20;;;;;;20550;6823;307027;-79
2023/01/04 10:51:01;;;;;;;1.02;0.93;;;10.70;49.00;;;;;;20552;6823;287622;-78
2023/01/04 10:53:50;;;;;;;0.80;0.80;;;10.90;48.30;;;;;;20765;6823;118157;-79
2023/01/04 10:56:16;;;;;;;1.33;0.90;;;10.90;48.30;;;;;;20771;6823;118434;-75
2023/01/04 10:58:52;;;;;;;0.60;0.50;;;10.60;48.80;;;;;;20762;6823;117152;-77
2023/01/04 11:01:18;;;;;;;0.80;0.70;;;10.20;49.90;;;;;;20754;6823;118217;-76
2023/01/04 11:03:51;;;;;;;1.10;1.00;;;10.20;49.80;;;;;;20736;6823;117758;-77
2023/01/04 11:06:33;;;;;;;0.70;0.70;;;10.10;50.10;;;;;;20052;6823;117865;-79
2023/01/04 11:08:58;;;;;;;0.70;0.70;;;10.00;50.40;;;;;;20385;6823;117088;-79
2023/01/04 11:11:43;;;;;;;1.17;1.10;;;10.00;50.60;;;;;;20537;6823;306369;-80
2023/01/04 11:14:09;;;;;;;0.60;0.60;;;10.30;50.20;;;;;;20737;6823;117317;-77
2023/01/04 11:16:35;;;;;;;1.20;0.80;;;10.30;50.10;;;;;;20564;6823;278637;-77
2023/01/04 11:19:03;;;;;;;1.33;0.80;;;10.50;49.70;;;;;;20547;6823;306572;-74
2023/01/04 11:21:29;;;;;;;0.80;0.80;;;10.90;49.10;;;;;;20770;6823;117026;-76
2023/01/04 11:23:58;;;;;;;1.13;0.77;;;11.00;49.10;;;;;;20564;6821;306775;-76
2023/01/04 11:26:24;;;;;;;1.08;0.70;;;11.10;48.80;;;;;;20575;6822;301275;-76
2023/01/04 11:28:52;;;;;;;1.47;0.80;;;11.40;48.40;;;;;;20747;6822;121143;-76
2023/01/04 11:31:27;;;;;;;0.70;0.70;;;11.30;48.50;;;;;;20761;6822;118414;-77
2023/01/04 11:33:59;;;;;;;0.97;0.83;;;11.10;49.20;;;;;;20536;6822;306772;-77
2023/01/04 11:36:38;;;;;;;0.90;0.77;;;11.20;48.30;;;;;;20761;6822;118286;-76
2023/01/04 11:39:20;;;;;;;1.33;0.73;;;11.20;48.50;;;;;;20769;6822;117049;-76
2023/01/04 11:41:56;;;;;;;0.73;0.70;;;11.00;48.90;;;;;;20757;6822;118396;-76
2023/01/04 11:44:21;;;;;;;0.70;0.70;;;10.80;49.30;;;;;;20556;6823;277653;-75
2023/01/04 11:46:47;;;;;;;0.50;0.50;;;11.10;49.30;;;;;;20758;6823;117111;-75
2023/01/04 11:49:19;;;;;;;0.90;0.90;;;11.10;49.30;;;;;;20514;6823;307258;-75
2023/01/04 11:51:45;;;;;;;0.80;0.80;;;11.30;49.30;;;;;;20534;6823;277756;-75
2023/01/04 11:54:18;;;;;;;0.73;0.73;;;11.60;48.70;;;;;;20561;6823;306818;-78
2023/01/04 11:57:04;;;;;;;0.80;0.80;;;11.90;48.30;;;;;;20562;6823;277215;-76
2023/01/04 11:59:28;;;;;;;1.08;0.93;;;12.10;47.90;;;;;;20568;6823;281923;-79
2023/01/04 12:02:14;;;;;;;0.73;0.73;;;12.30;47.60;;;;;;20538;6823;309464;-75
2023/01/04 12:04:39;;;;;;;0.60;0.60;;;12.40;47.40;;;;;;20785;6823;117227;-75
2023/01/04 12:07:08;;;;;;;1.50;0.67;;;12.20;47.80;;;;;;20783;6823;118124;-76
2023/01/04 12:09:33;;;;;;;0.80;0.80;;;11.90;48.40;;;;;;20717;6823;117641;-72
2023/01/04 12:11:59;;;;;;;1.60;0.90;;;11.60;48.70;;;;;;20754;6823;118813;-75
2023/01/04 12:14:25;;;;;;;0.90;0.87;;;11.50;49.40;;;;;;20531;6823;307211;-72
2023/01/04 12:17:04;;;;;;;0.90;0.90;;;11.50;49.40;;;;;;20753;6823;118942;-75
2023/01/04 12:19:30;;;;;;;0.77;0.73;;;11.50;49.40;;;;;;20554;6823;277799;-75
2023/01/04 12:21:55;;;;;;;1.13;0.87;;;11.70;49.20;;;;;;20532;6823;306762;-76
2023/01/04 12:24:31;;;;;;;1.00;0.90;;;12.20;48.40;;;;;;20554;6823;315023;-75
2023/01/04 12:26:57;;;;;;;1.17;0.87;;;12.20;48.60;;;;;;20554;6823;309071;-77
2023/01/04 12:29:22;;;;;;;0.80;0.80;;;12.50;48.10;;;;;;20559;6823;309386;-73
2023/01/04 12:31:48;;;;;;;0.90;0.90;;;12.60;48.10;;;;;;20756;6823;118190;-75
2023/01/04 12:34:24;;;;;;;0.80;0.80;;;12.50;48.40;;;;;;20455;6821;343882;-75
2023/01/04 12:36:53;;;;;;;0.80;0.80;;;12.40;48.40;;;;;;20780;6822;118258;-73
2023/01/04 12:39:22;;;;;;;0.93;0.90;;;12.30;48.70;;;;;;20779;6822;116934;-74
2023/01/04 12:42:00;;;;;;;1.13;1.03;;;12.00;49.20;;;;;;20601;6822;122233;-74
2023/01/04 12:44:36;;;;;;;0.70;0.70;;;11.70;49.50;;;;;;20762;6822;118841;-75
2023/01/04 12:49:57;;;;;;;1.20;1.10;;;11.40;50.30;;;;;;20529;6822;277946;-77
2023/01/04 12:52:22;;;;;;;1.12;1.00;;;11.60;50.80;;;;;;20540;6822;312094;-75
2023/01/04 12:54:53;;;;;;;2.03;1.13;;;12.00;49.40;;;;;;20768;6823;117209;-75
2023/01/04 12:57:17;;;;;;;0.90;0.90;;;11.90;49.80;;;;;;20532;6823;339016;-73
2023/01/04 12:59:56;;;;;;;0.90;0.90;;;12.10;49.70;;;;;;20540;6823;311838;-76
2023/01/04 13:02:25;;;;;;;1.23;1.12;;;12.30;49.50;;;;;;20536;6823;306355;-77
2023/01/04 13:04:50;;;;;;;1.70;0.77;;;12.60;49.30;;;;;;20725;6823;117099;-76
2023/01/04 13:07:19;;;;;;;0.88;0.88;;;12.50;49.30;;;;;;20723;6823;117209;-77
2023/01/04 13:09:45;;;;;;;1.17;1.10;;;12.20;49.70;;;;;;20744;6823;117160;-74
2023/01/04 13:12:20;;;;;;;1.23;0.90;;;12.00;50.10;;;;;;20500;6823;312998;-74
2023/01/04 13:14:46;;;;;;;1.03;1.00;;;12.10;50.30;;;;;;20520;6823;278335;-76
2023/01/04 13:17:21;;;;;;;0.80;0.80;;;12.40;49.90;;;;;;20544;6823;308320;-75
2023/01/04 13:19:46;;;;;;;1.00;0.93;;;12.60;49.40;;;;;;20531;6823;306728;-74
2023/01/04 13:22:19;;;;;;;1.03;0.93;;;12.80;48.90;;;;;;20755;6823;117323;-74
2023/01/04 13:24:44;;;;;;;0.73;0.73;;;12.70;48.90;;;;;;20701;6823;119927;-74
2023/01/04 13:27:13;;;;;;;0.70;0.70;;;12.40;49.50;;;;;;20760;6823;117007;-75
2023/01/04 13:29:38;;;;;;;0.97;0.97;;;12.10;49.90;;;;;;20541;6823;306786;-73
2023/01/04 13:32:23;;;;;;;1.10;1.10;;;12.20;50.20;;;;;;20726;6823;120250;-76
2023/01/04 13:34:52;;;;;;;0.70;0.70;;;12.10;50.10;;;;;;20762;6823;116463;-75
2023/01/04 13:37:31;;;;;;;0.90;0.90;;;11.90;50.40;;;;;;20544;6823;307153;-75